Time;durP1;ratioP1;P1;durP2;ratioP2;P2;SDS_P1;SDS_P2;PMS_P1;PMS_P2;Temp;Humidity;BMP_temperature;BMP_pressure;BME280_temperature;BME280_humidity;BME280_pressure;Samples;Min_cycle;Max_cycle;Signal;HPM_P1;HPM_P2
2023/10/01 00:00:42;;;;;;;15.95;7.97;;;;;;;;;;6246254;28;20052;-70
2023/10/01 00:03:45;;;;;;;12.43;6.15;;;;;;;;;;6249787;28;20129;-69
2023/10/01 00:06:51;;;;;;;10.38;8.75;;;;;;;;;;6263188;28;20050;-71
2023/10/01 00:09:53;;;;;;;11.82;10.30;;;;;;;;;;6309793;28;20166;-73
2023/10/01 00:12:56;;;;;;;11.45;10.00;;;;;;;;;;6291396;28;20572;-69
2023/10/01 00:15:59;;;;;;;11.23;8.45;;;;;;;;;;6266257;28;20062;-70
2023/10/01 00:19:03;;;;;;;11.68;9.38;;;;;;;;;;6282852;28;20065;-70
2023/10/01 00:22:05;;;;;;;10.80;9.30;;;;;;;;;;6270240;28;20049;-74
2023/10/01 00:25:08;;;;;;;13.02;9.77;;;;;;;;;;6273327;28;20046;-70
2023/10/01 00:28:10;;;;;;;16.05;10.35;;;;;;;;;;6275747;28;20066;-69
2023/10/01 00:31:13;;;;;;;16.98;8.95;;;;;;;;;;6270766;28;20549;-69
2023/10/01 00:34:16;;;;;;;14.27;9.00;;;;;;;;;;6297635;28;20047;-69
2023/10/01 00:37:18;;;;;;;10.23;7.80;;;;;;;;;;6331165;28;20052;-71
2023/10/01 00:40:20;;;;;;;11.68;9.65;;;;;;;;;;6300810;28;20145;-69
2023/10/01 00:43:29;;;;;;;13.52;8.70;;;;;;;;;;6315838;28;20597;-70
2023/10/01 00:46:33;;;;;;;13.52;7.88;;;;;;;;;;6253316;28;20530;-70
2023/10/01 00:49:41;;;;;;;12.45;7.93;;;;;;;;;;6250519;28;20052;-70
2023/10/01 00:52:44;;;;;;;15.50;8.82;;;;;;;;;;6265131;28;20054;-71
2023/10/01 00:55:48;;;;;;;10.65;7.70;;;;;;;;;;6255567;28;20054;-70
2023/10/01 00:58:50;;;;;;;13.63;9.07;;;;;;;;;;6278804;28;20049;-69
2023/10/01 01:01:54;;;;;;;15.30;8.27;;;;;;;;;;6314682;28;20043;-70
2023/10/01 01:08:28;;;;;;;13.82;10.05;;;;;;;;;;6320891;28;20044;-71
2023/10/01 01:11:30;;;;;;;12.40;8.07;;;;;;;;;;6283470;28;20047;-68
2023/10/01 01:14:33;;;;;;;9.68;8.23;;;;;;;;;;6224605;28;20053;-69
2023/10/01 01:17:36;;;;;;;10.35;8.32;;;;;;;;;;6309664;28;20521;-70
2023/10/01 01:20:45;;;;;;;12.50;8.73;;;;;;;;;;6298373;28;20040;-70
2023/10/01 01:23:50;;;;;;;10.80;6.32;;;;;;;;;;6319640;28;20696;-70
2023/10/01 01:26:52;;;;;;;12.77;9.30;;;;;;;;;;6227827;28;20140;-70
2023/10/01 01:29:54;;;;;;;10.55;9.35;;;;;;;;;;6301108;28;20141;-69
2023/10/01 01:32:57;;;;;;;10.68;7.53;;;;;;;;;;6314563;28;20047;-70
2023/10/01 01:36:03;;;;;;;13.40;8.57;;;;;;;;;;6272809;28;20153;-70
2023/10/01 01:39:27;;;;;;;14.27;9.00;;;;;;;;;;6270560;28;20059;-69
2023/10/01 01:42:30;;;;;;;11.25;8.48;;;;;;;;;;6349059;28;20102;-70
2023/10/01 01:45:38;;;;;;;12.10;8.60;;;;;;;;;;6289199;28;20134;-70
2023/10/01 01:48:41;;;;;;;10.27;8.65;;;;;;;;;;6281871;28;20035;-69
2023/10/01 01:52:03;;;;;;;11.68;9.35;;;;;;;;;;6267175;28;20160;-69
2023/10/01 01:55:23;;;;;;;10.30;9.20;;;;;;;;;;6295426;28;20165;-70
2023/10/01 01:58:26;;;;;;;12.43;8.93;;;;;;;;;;6294731;28;20631;-70
2023/10/01 02:01:30;;;;;;;11.30;10.18;;;;;;;;;;6267410;28;20055;-69
2023/10/01 02:04:32;;;;;;;10.48;8.52;;;;;;;;;;6317338;28;20100;-69
2023/10/01 02:07:34;;;;;;;10.30;9.20;;;;;;;;;;6296181;28;20054;-70
2023/10/01 02:10:44;;;;;;;11.45;8.32;;;;;;;;;;6296752;28;20042;-69
2023/10/01 02:13:50;;;;;;;12.95;8.68;;;;;;;;;;6275941;28;20596;-70
2023/10/01 02:17:02;;;;;;;9.13;8.00;;;;;;;;;;6318353;28;20472;-69
2023/10/01 02:20:10;;;;;;;11.23;8.90;;;;;;;;;;6258369;28;20088;-70
2023/10/01 02:23:13;;;;;;;11.30;8.80;;;;;;;;;;6234489;28;20060;-69
2023/10/01 02:26:15;;;;;;;13.35;9.20;;;;;;;;;;6276165;28;20822;-70
2023/10/01 02:29:17;;;;;;;10.93;9.32;;;;;;;;;;6264323;28;20057;-70
2023/10/01 02:32:19;;;;;;;12.25;6.07;;;;;;;;;;6215275;28;20878;-71
2023/10/01 02:35:34;;;;;;;10.93;9.68;;;;;;;;;;6223893;28;20045;-69
2023/10/01 02:38:36;;;;;;;12.60;10.35;;;;;;;;;;6269458;28;20036;-70
2023/10/01 02:41:40;;;;;;;11.40;9.45;;;;;;;;;;6257422;28;20043;-70
2023/10/01 02:44:47;;;;;;;12.73;8.75;;;;;;;;;;6250584;28;20592;-70
2023/10/01 02:48:13;;;;;;;12.50;10.52;;;;;;;;;;6239052;28;20057;-69
2023/10/01 02:51:14;;;;;;;11.65;10.55;;;;;;;;;;6227601;28;20053;-70
2023/10/01 02:54:18;;;;;;;11.18;9.10;;;;;;;;;;6267993;28;20046;-69
2023/10/01 02:57:24;;;;;;;10.77;9.68;;;;;;;;;;6296913;28;20122;-69
2023/10/01 03:00:31;;;;;;;10.35;8.27;;;;;;;;;;6301890;28;20530;-69
2023/10/01 03:03:38;;;;;;;9.25;8.23;;;;;;;;;;6289437;28;20077;-69
2023/10/01 03:06:47;;;;;;;11.00;8.25;;;;;;;;;;6312234;28;20051;-69
2023/10/01 03:09:53;;;;;;;10.32;9.25;;;;;;;;;;6288272;28;20050;-69
2023/10/01 03:13:00;;;;;;;10.52;8.88;;;;;;;;;;6314815;28;20380;-69
2023/10/01 03:19:26;;;;;;;12.13;10.85;;;;;;;;;;6274561;28;20042;-69
2023/10/01 03:22:31;;;;;;;15.98;8.90;;;;;;;;;;6236234;28;20466;-69
2023/10/01 03:25:41;;;;;;;13.02;10.90;;;;;;;;;;6304021;28;20043;-69
2023/10/01 03:32:27;;;;;;;13.98;9.25;;;;;;;;;;6224531;28;20062;-69
2023/10/01 03:35:27;;;;;;;13.45;10.07;;;;;;;;;;6248415;28;20578;-70
2023/10/01 03:38:32;;;;;;;12.88;8.07;;;;;;;;;;6231108;28;20051;-70
2023/10/01 03:48:19;;;;;;;9.02;7.72;;;;;;;;;;6259997;28;20040;-70
2023/10/01 03:51:28;;;;;;;9.07;6.68;;;;;;;;;;6215500;28;20665;-69
2023/10/01 03:57:53;;;;;;;11.65;8.38;;;;;;;;;;6268238;28;20040;-70
2023/10/01 04:01:03;;;;;;;11.63;8.57;;;;;;;;;;6292949;28;20093;-70
2023/10/01 04:04:10;;;;;;;11.05;7.90;;;;;;;;;;6226645;28;20056;-69
2023/10/01 04:07:15;;;;;;;10.05;9.02;;;;;;;;;;6269146;28;20521;-69
2023/10/01 04:10:38;;;;;;;;;;;;;;;;;;6255167;28;20057;-69
2023/10/01 04:13:41;;;;;;;10.82;7.78;;;;;;;;;;6254889;28;19929;-69
2023/10/01 04:16:46;;;;;;;11.15;6.93;;;;;;;;;;6236326;28;20831;-69
2023/10/01 04:19:53;;;;;;;9.55;7.90;;;;;;;;;;6252955;28;20114;-69
2023/10/01 04:23:04;;;;;;;11.50;8.07;;;;;;;;;;6270700;28;20050;-69
2023/10/01 04:26:13;;;;;;;12.63;9.25;;;;;;;;;;6266239;28;20161;-70
2023/10/01 04:29:17;;;;;;;11.57;7.53;;;;;;;;;;6284445;28;20724;-70
2023/10/01 04:32:23;;;;;;;11.60;7.88;;;;;;;;;;6221039;28;20065;-71
2023/10/01 04:35:25;;;;;;;9.77;5.68;;;;;;;;;;6275141;28;20633;-70
2023/10/01 04:38:29;;;;;;;13.60;9.77;;;;;;;;;;6281298;28;20048;-72
2023/10/01 04:41:31;;;;;;;15.02;8.45;;;;;;;;;;6331174;28;20136;-70
2023/10/01 04:44:35;;;;;;;14.05;9.05;;;;;;;;;;6238949;28;20150;-71
2023/10/01 04:47:41;;;;;;;16.85;9.88;;;;;;;;;;6285035;28;20134;-70
2023/10/01 04:50:46;;;;;;;9.98;8.50;;;;;;;;;;6241705;28;20520;-70
2023/10/01 04:53:49;;;;;;;13.38;8.25;;;;;;;;;;6255558;28;20153;-70
2023/10/01 04:56:55;;;;;;;13.82;8.77;;;;;;;;;;6257465;28;20078;-70
2023/10/01 04:59:57;;;;;;;15.73;10.30;;;;;;;;;;6277741;28;20046;-70
2023/10/01 05:03:03;;;;;;;14.68;9.35;;;;;;;;;;6283981;28;20059;-70
2023/10/01 05:06:18;;;;;;;11.45;8.88;;;;;;;;;;6238489;28;20039;-70
2023/10/01 05:09:22;;;;;;;13.48;9.45;;;;;;;;;;6237826;28;20129;-69
2023/10/01 05:12:30;;;;;;;18.40;10.60;;;;;;;;;;6277148;28;20084;-68
2023/10/01 05:15:35;;;;;;;11.25;8.82;;;;;;;;;;6255420;28;20216;-69
2023/10/01 05:18:39;;;;;;;12.80;9.63;;;;;;;;;;6289892;28;20042;-69
2023/10/01 05:21:49;;;;;;;12.95;9.40;;;;;;;;;;6226262;28;20140;-68
2023/10/01 05:24:52;;;;;;;12.27;9.43;;;;;;;;;;6274461;28;20523;-69
2023/10/01 05:28:03;;;;;;;11.43;9.60;;;;;;;;;;6225506;28;20038;-68
2023/10/01 05:31:12;;;;;;;13.20;9.88;;;;;;;;;;6233112;28;20046;-69
2023/10/01 05:34:15;;;;;;;12.60;9.43;;;;;;;;;;6293739;28;20422;-69
2023/10/01 05:37:36;;;;;;;15.35;9.77;;;;;;;;;;6312178;28;20051;-68
2023/10/01 05:40:40;;;;;;;14.00;9.88;;;;;;;;;;6269857;28;20049;-65
2023/10/01 05:43:43;;;;;;;14.98;10.90;;;;;;;;;;6221317;28;20080;-69
2023/10/01 05:46:49;;;;;;;11.10;9.30;;;;;;;;;;6279318;28;20043;-69
2023/10/01 05:49:53;;;;;;;15.52;11.40;;;;;;;;;;6244591;28;20129;-69
2023/10/01 05:52:55;;;;;;;10.68;9.25;;;;;;;;;;6237464;28;20046;-66
2023/10/01 05:56:10;;;;;;;13.30;8.75;;;;;;;;;;6211215;28;20532;-65
2023/10/01 05:59:12;;;;;;;14.48;9.02;;;;;;;;;;6252359;28;20054;-66
2023/10/01 06:02:31;;;;;;;11.88;8.65;;;;;;;;;;6279241;28;20125;-66
2023/10/01 06:05:42;;;;;;;18.05;7.68;;;;;;;;;;6254064;28;20442;-68
2023/10/01 06:08:49;;;;;;;16.83;8.50;;;;;;;;;;6225928;28;20156;-69
2023/10/01 06:12:03;;;;;;;12.50;8.52;;;;;;;;;;6237958;28;20062;-73
2023/10/01 06:15:11;;;;;;;10.18;4.97;;;;;;;;;;6279888;28;20115;-68
2023/10/01 06:18:14;;;;;;;18.52;10.00;;;;;;;;;;6239592;28;20058;-69
2023/10/01 06:21:22;;;;;;;16.95;8.85;;;;;;;;;;6212755;28;20134;-68
2023/10/01 06:24:27;;;;;;;15.88;10.57;;;;;;;;;;6228107;28;20058;-68
2023/10/01 06:27:30;;;;;;;12.18;11.00;;;;;;;;;;6246542;28;20056;-68
2023/10/01 06:30:33;;;;;;;10.93;5.82;;;;;;;;;;6212950;28;20049;-69
2023/10/01 06:33:38;;;;;;;12.90;6.78;;;;;;;;;;6308692;28;20110;-66
2023/10/01 06:36:40;;;;;;;13.23;6.65;;;;;;;;;;6247553;28;20045;-70
2023/10/01 06:39:46;;;;;;;11.18;6.32;;;;;;;;;;6222504;28;20050;-70
2023/10/01 06:42:48;;;;;;;14.27;6.75;;;;;;;;;;6244207;28;20511;-69
2023/10/01 06:45:50;;;;;;;13.38;8.45;;;;;;;;;;6290569;28;20362;-65
2023/10/01 06:48:54;;;;;;;10.30;6.45;;;;;;;;;;6275731;28;20045;-69
2023/10/01 06:52:00;;;;;;;11.82;6.68;;;;;;;;;;6277488;28;20051;-70
2023/10/01 06:55:04;;;;;;;9.23;7.57;;;;;;;;;;6335398;28;20052;-69
2023/10/01 06:58:07;;;;;;;8.60;5.18;;;;;;;;;;6253993;28;20362;-70
2023/10/01 07:01:34;;;;;;;9.93;7.07;;;;;;;;;;6237006;28;20153;-71
2023/10/01 07:04:35;;;;;;;10.30;5.80;;;;;;;;;;6211237;28;20056;-70
2023/10/01 07:07:40;;;;;;;12.23;8.95;;;;;;;;;;6219063;28;20771;-70
2023/10/01 07:10:50;;;;;;;;;;;;;;;;;;6267474;28;20088;-72
2023/10/01 07:13:58;;;;;;;12.40;6.10;;;;;;;;;;6204372;28;20289;-70
2023/10/01 07:17:02;;;;;;;9.65;5.50;;;;;;;;;;6299519;28;20667;-70
2023/10/01 07:20:44;;;;;;;12.05;10.95;;;;;;;;;;6281116;28;20034;-70
2023/10/01 07:23:38;;;;;;;7.20;5.88;;;;;;;;;;6219763;28;20056;-69
2023/10/01 07:26:42;;;;;;;10.00;6.68;;;;;;;;;;6252724;28;20441;-70
2023/10/01 07:29:50;;;;;;;13.25;6.85;;;;;;;;;;6300610;28;20039;-70
2023/10/01 07:32:55;;;;;;;11.13;9.25;;;;;;;;;;6311561;28;20051;-70
2023/10/01 07:36:00;;;;;;;11.77;9.30;;;;;;;;;;6288691;28;20135;-69
2023/10/01 07:39:04;;;;;;;11.63;10.00;;;;;;;;;;6290735;28;20038;-70
2023/10/01 07:42:10;;;;;;;12.27;9.27;;;;;;;;;;6229046;28;20647;-71
2023/10/01 07:45:16;;;;;;;16.15;10.32;;;;;;;;;;6267011;28;20050;-70
2023/10/01 07:48:18;;;;;;;9.82;6.78;;;;;;;;;;6254557;28;20596;-70
2023/10/01 07:51:26;;;;;;;13.18;9.07;;;;;;;;;;6274310;28;20046;-69
2023/10/01 07:54:28;;;;;;;13.27;11.95;;;;;;;;;;6243344;28;20744;-69
2023/10/01 07:57:31;;;;;;;13.13;9.43;;;;;;;;;;6310922;28;20054;-70
2023/10/01 08:00:35;;;;;;;13.15;9.48;;;;;;;;;;6243943;28;20047;-70
2023/10/01 08:03:48;;;;;;;16.25;9.23;;;;;;;;;;6232095;28;20050;-70
2023/10/01 08:06:50;;;;;;;15.63;7.10;;;;;;;;;;6216127;28;20045;-70
2023/10/01 08:09:54;;;;;;;15.02;9.07;;;;;;;;;;6270198;28;20062;-70
2023/10/01 08:13:06;;;;;;;13.73;7.72;;;;;;;;;;6228285;28;20428;-70
2023/10/01 08:16:13;;;;;;;14.23;7.47;;;;;;;;;;6305559;28;20043;-70
2023/10/01 08:19:20;;;;;;;11.18;8.70;;;;;;;;;;6290633;28;20053;-70
2023/10/01 08:22:23;;;;;;;14.25;9.52;;;;;;;;;;6271421;28;20052;-70
2023/10/01 08:25:27;;;;;;;15.20;9.85;;;;;;;;;;6239297;28;20547;-69
2023/10/01 08:28:43;;;;;;;13.43;9.73;;;;;;;;;;6258933;28;20049;-70
2023/10/01 08:35:05;;;;;;;12.07;9.05;;;;;;;;;;6228169;28;20472;-70
2023/10/01 08:38:15;;;;;;;10.63;8.98;;;;;;;;;;6305790;28;20051;-70
2023/10/01 08:41:32;;;;;;;14.30;6.65;;;;;;;;;;6213152;28;20716;-70
2023/10/01 08:44:47;;;;;;;;;;;;;;;;;;6263605;28;20444;-69
2023/10/01 08:47:50;;;;;;;12.98;9.52;;;;;;;;;;6263444;28;19942;-70
2023/10/01 08:50:52;;;;;;;12.73;8.63;;;;;;;;;;6261225;28;20038;-69
2023/10/01 08:53:56;;;;;;;11.43;6.70;;;;;;;;;;6255815;28;20054;-69
2023/10/01 08:56:59;;;;;;;11.23;8.30;;;;;;;;;;6265544;28;20049;-69
2023/10/01 09:00:15;;;;;;;9.70;6.30;;;;;;;;;;6260330;28;20058;-69
2023/10/01 09:03:28;;;;;;;14.88;8.75;;;;;;;;;;6270624;28;20050;-70
2023/10/01 09:06:58;;;;;;;9.85;6.72;;;;;;;;;;6253696;28;20600;-70
2023/10/01 09:10:06;;;;;;;13.88;8.10;;;;;;;;;;6250393;28;20517;-69
2023/10/01 09:13:13;;;;;;;9.10;6.97;;;;;;;;;;6240008;28;20057;-69
2023/10/01 09:16:16;;;;;;;11.40;7.20;;;;;;;;;;6273574;28;20057;-69
2023/10/01 09:19:37;;;;;;;12.98;8.93;;;;;;;;;;6257618;28;20044;-68
2023/10/01 09:22:59;;;;;;;13.60;10.02;;;;;;;;;;6223818;28;20050;-69
2023/10/01 09:26:01;;;;;;;13.65;10.27;;;;;;;;;;6231041;28;20038;-69
2023/10/01 09:29:25;;;;;;;14.05;8.55;;;;;;;;;;6244195;28;20045;-69
2023/10/01 09:32:51;;;;;;;13.20;7.88;;;;;;;;;;6279923;28;20054;-69
2023/10/01 09:35:59;;;;;;;11.82;5.30;;;;;;;;;;6214758;28;20069;-69
2023/10/01 09:39:06;;;;;;;10.77;5.70;;;;;;;;;;6204080;28;20115;-69
2023/10/01 09:42:25;;;;;;;8.15;5.72;;;;;;;;;;6267459;28;20062;-69
2023/10/01 09:45:34;;;;;;;12.57;8.77;;;;;;;;;;6293109;28;20122;-68
2023/10/01 09:48:48;;;;;;;10.68;7.65;;;;;;;;;;6226629;28;20046;-69
2023/10/01 09:51:53;;;;;;;9.73;7.32;;;;;;;;;;6277656;28;20180;-69
2023/10/01 09:55:07;;;;;;;14.48;5.43;;;;;;;;;;6281327;28;20037;-69
2023/10/01 09:58:10;;;;;;;11.95;7.25;;;;;;;;;;6280471;28;20049;-69
2023/10/01 10:01:17;;;;;;;13.02;8.00;;;;;;;;;;6240658;28;20046;-69
2023/10/01 10:04:20;;;;;;;14.70;9.23;;;;;;;;;;6232647;28;20419;-69
2023/10/01 10:07:24;;;;;;;16.13;10.57;;;;;;;;;;6312305;28;20050;-69
2023/10/01 10:10:27;;;;;;;11.40;6.88;;;;;;;;;;6262739;28;20050;-72
2023/10/01 10:13:36;;;;;;;14.30;9.43;;;;;;;;;;6269304;28;20211;-72
2023/10/01 10:16:57;;;;;;;17.98;10.75;;;;;;;;;;6203606;28;20046;-71
2023/10/01 10:20:26;;;;;;;11.18;7.32;;;;;;;;;;6206988;28;20410;-72
2023/10/01 10:23:54;;;;;;;14.85;11.10;;;;;;;;;;6224978;28;20057;-72
2023/10/01 10:27:03;;;;;;;49.75;31.92;;;;;;;;;;6277599;28;20043;-71
2023/10/01 10:30:14;;;;;;;11.60;7.95;;;;;;;;;;6283633;28;20034;-71
2023/10/01 10:33:29;;;;;;;6.90;4.28;;;;;;;;;;6262602;28;20418;-70
2023/10/01 10:36:49;;;;;;;12.07;8.48;;;;;;;;;;6275561;28;20054;-71
2023/10/01 10:40:02;;;;;;;11.23;7.88;;;;;;;;;;6234916;28;20179;-71
2023/10/01 10:43:06;;;;;;;13.38;7.40;;;;;;;;;;6234675;28;20133;-72
2023/10/01 10:46:09;;;;;;;12.32;7.30;;;;;;;;;;6212496;28;20061;-71
2023/10/01 10:49:11;;;;;;;13.73;8.93;;;;;;;;;;6253156;28;20045;-72
2023/10/01 10:57:48;;;;;;;8.25;4.82;;;;;;;;;;6297113;22;1442639;-66
2023/10/01 11:00:55;;;;;;;11.48;6.15;;;;;;;;;;6268856;28;20060;-66
2023/10/01 11:03:57;;;;;;;12.45;7.15;;;;;;;;;;6280019;28;20055;-65
2023/10/01 11:07:04;;;;;;;11.05;6.40;;;;;;;;;;6281155;28;20041;-66
2023/10/01 11:10:06;;;;;;;10.02;5.32;;;;;;;;;;6272669;28;20052;-66
2023/10/01 11:13:13;;;;;;;10.40;5.40;;;;;;;;;;6279923;28;20044;-66
2023/10/01 11:16:15;;;;;;;13.40;8.80;;;;;;;;;;6262589;28;20775;-66
2023/10/01 11:19:25;;;;;;;15.65;8.32;;;;;;;;;;6267099;28;20185;-65
2023/10/01 11:22:28;;;;;;;10.13;5.53;;;;;;;;;;6268238;28;20083;-66
2023/10/01 11:25:30;;;;;;;11.52;4.70;;;;;;;;;;6260411;28;20083;-66
2023/10/01 11:28:41;;;;;;;9.93;4.38;;;;;;;;;;6270031;28;20053;-66
2023/10/01 11:31:50;;;;;;;10.93;5.65;;;;;;;;;;6267670;28;20045;-67
2023/10/01 11:34:55;;;;;;;31.33;14.70;;;;;;;;;;6266770;28;20048;-66
2023/10/01 11:38:20;;;;;;;12.82;6.65;;;;;;;;;;6276488;28;20048;-66
2023/10/01 11:41:38;;;;;;;10.80;5.20;;;;;;;;;;6260781;28;20124;-65
2023/10/01 11:44:43;;;;;;;9.65;5.68;;;;;;;;;;6264482;28;20056;-65
2023/10/01 11:48:04;;;;;;;10.50;6.07;;;;;;;;;;6262177;28;20048;-66
2023/10/01 11:51:08;;;;;;;14.77;7.25;;;;;;;;;;6266683;28;20052;-65
2023/10/01 11:54:15;;;;;;;12.98;5.50;;;;;;;;;;6253355;28;20060;-66
2023/10/01 11:57:23;;;;;;;11.18;6.68;;;;;;;;;;6274499;28;20041;-65
2023/10/01 12:03:58;;;;;;;10.75;6.65;;;;;;;;;;6264965;28;20060;-66
2023/10/01 12:07:00;;;;;;;13.98;6.55;;;;;;;;;;6272287;28;20037;-66
2023/10/01 12:10:05;;;;;;;10.52;6.18;;;;;;;;;;6262448;28;20230;-66
2023/10/01 12:13:08;;;;;;;19.20;6.82;;;;;;;;;;6262781;28;20057;-66
2023/10/01 12:16:10;;;;;;;9.98;6.82;;;;;;;;;;6256123;28;20041;-64
2023/10/01 12:19:46;;;;;;;10.93;6.35;;;;;;;;;;6252110;28;20049;-65
2023/10/01 12:22:42;;;;;;;12.18;6.68;;;;;;;;;;6254763;28;20044;-65
2023/10/01 12:26:32;;;;;;;15.60;6.53;;;;;;;;;;6259606;28;20068;-66
2023/10/01 12:29:25;;;;;;;10.48;5.53;;;;;;;;;;6260244;28;20187;-66
2023/10/01 12:32:40;;;;;;;10.15;5.68;;;;;;;;;;6259755;28;20061;-65
2023/10/01 12:35:46;;;;;;;11.02;5.85;;;;;;;;;;6260672;28;20080;-64
2023/10/01 12:38:48;;;;;;;;;;;;;;;;;;6246094;28;20414;-64
2023/10/01 12:45:13;;;;;;;12.38;5.63;;;;;;;;;;6254063;28;20053;-65
2023/10/01 12:48:17;;;;;;;9.63;5.25;;;;;;;;;;6258973;28;20071;-66
2023/10/01 12:51:20;;;;;;;7.28;5.18;;;;;;;;;;6249625;28;20175;-64
2023/10/01 12:54:25;;;;;;;10.43;5.68;;;;;;;;;;6253583;28;20044;-64
2023/10/01 12:57:33;;;;;;;11.75;6.18;;;;;;;;;;6253131;28;20052;-64
2023/10/01 13:00:44;;;;;;;12.30;7.43;;;;;;;;;;6262553;28;20044;-65
2023/10/01 13:03:47;;;;;;;14.77;12.20;;;;;;;;;;6254760;28;20437;-66
2023/10/01 13:06:50;;;;;;;13.55;6.97;;;;;;;;;;6257241;28;20041;-65
2023/10/01 13:09:53;;;;;;;11.85;6.30;;;;;;;;;;6249825;28;20053;-64
2023/10/01 13:12:56;;;;;;;9.80;5.78;;;;;;;;;;6254531;28;20045;-65
2023/10/01 13:16:00;;;;;;;11.88;8.15;;;;;;;;;;6255421;28;20564;-64
2023/10/01 13:19:17;;;;;;;10.25;6.70;;;;;;;;;;6252569;28;20085;-63
2023/10/01 13:22:20;;;;;;;9.48;6.30;;;;;;;;;;6253469;28;20033;-64
2023/10/01 13:25:24;;;;;;;12.30;4.88;;;;;;;;;;6258184;28;20592;-64
2023/10/01 13:28:43;;;;;;;11.27;5.47;;;;;;;;;;6256614;28;20552;-64
2023/10/01 13:31:51;;;;;;;10.50;5.40;;;;;;;;;;6256099;28;20052;-64
2023/10/01 13:34:56;;;;;;;15.00;8.27;;;;;;;;;;6257397;28;20773;-64
2023/10/01 13:38:15;;;;;;;10.77;5.50;;;;;;;;;;6256013;28;20453;-64
2023/10/01 14:11:39;;;;;;;18.15;10.40;;;;;;;;;;6259625;28;20052;-66
2023/10/01 14:14:43;;;;;;;;;;;;;;;;;;6257245;28;20080;-66
2023/10/01 14:17:52;;;;;;;17.85;11.45;;;;;;;;;;6258291;28;20609;-65
2023/10/01 14:20:54;;;;;;;9.80;8.43;;;;;;;;;;6256357;28;20438;-66
2023/10/01 14:24:21;;;;;;;8.85;6.13;;;;;;;;;;6256218;28;20625;-67
2023/10/01 14:27:26;;;;;;;16.27;7.85;;;;;;;;;;6255076;28;20051;-67
2023/10/01 14:30:29;;;;;;;12.07;9.90;;;;;;;;;;6245485;28;20441;-66
2023/10/01 14:33:33;;;;;;;14.02;8.98;;;;;;;;;;6250487;28;20813;-67
2023/10/01 14:36:39;;;;;;;16.45;8.93;;;;;;;;;;6250430;28;20048;-66
2023/10/01 14:39:47;;;;;;;13.13;8.50;;;;;;;;;;6246527;28;20095;-67
2023/10/01 14:43:00;;;;;;;16.40;9.95;;;;;;;;;;6247352;28;20860;-66
2023/10/01 14:46:02;;;;;;;13.73;9.82;;;;;;;;;;6244943;28;20045;-66
2023/10/01 14:49:04;;;;;;;15.80;9.80;;;;;;;;;;6250729;28;20053;-66
2023/10/01 14:52:07;;;;;;;16.00;11.93;;;;;;;;;;6252561;28;20434;-65
2023/10/01 14:55:18;;;;;;;16.55;9.70;;;;;;;;;;6234735;28;20903;-65
2023/10/01 14:58:26;;;;;;;16.55;10.23;;;;;;;;;;6251767;28;20753;-66
2023/10/01 15:01:36;;;;;;;14.63;8.95;;;;;;;;;;6250474;28;20049;-65
2023/10/01 15:04:39;;;;;;;13.43;9.43;;;;;;;;;;6252540;28;20059;-66
2023/10/01 15:07:42;;;;;;;17.55;9.90;;;;;;;;;;6245375;28;20045;-66
2023/10/01 15:10:49;;;;;;;16.83;9.98;;;;;;;;;;6247411;28;20049;-66
2023/10/01 15:13:54;;;;;;;17.02;10.63;;;;;;;;;;6243199;28;20760;-66
2023/10/01 15:16:57;;;;;;;13.90;8.38;;;;;;;;;;6249140;28;20056;-67
2023/10/01 15:20:27;;;;;;;15.57;10.07;;;;;;;;;;6252696;28;20060;-66
2023/10/01 15:23:31;;;;;;;14.93;9.70;;;;;;;;;;6243687;28;20135;-66
2023/10/01 15:26:42;;;;;;;15.70;13.90;;;;;;;;;;6251720;28;20438;-67
2023/10/01 15:29:52;;;;;;;18.48;12.38;;;;;;;;;;6252350;28;20052;-66
2023/10/01 15:33:01;;;;;;;15.95;10.95;;;;;;;;;;6246902;28;20170;-66
2023/10/01 15:36:05;;;;;;;15.93;11.88;;;;;;;;;;6252273;28;20042;-66
2023/10/01 15:39:14;;;;;;;18.70;13.40;;;;;;;;;;6254477;28;20041;-66
2023/10/01 15:42:18;;;;;;;18.42;12.32;;;;;;;;;;6254672;28;20045;-66
2023/10/01 15:45:21;;;;;;;18.45;12.10;;;;;;;;;;6255232;28;20540;-66
2023/10/01 15:48:23;;;;;;;20.15;14.63;;;;;;;;;;6252327;28;20442;-66
2023/10/01 15:51:27;;;;;;;22.65;17.75;;;;;;;;;;6258007;28;20442;-66
2023/10/01 15:54:29;;;;;;;19.65;13.38;;;;;;;;;;6250708;28;20064;-66
2023/10/01 15:57:34;;;;;;;18.92;13.55;;;;;;;;;;6254399;28;20037;-66
2023/10/01 16:00:37;;;;;;;19.60;12.32;;;;;;;;;;6256710;28;20054;-66
2023/10/01 16:03:41;;;;;;;22.02;14.27;;;;;;;;;;6262245;28;20074;-66
2023/10/01 16:06:44;;;;;;;20.98;13.07;;;;;;;;;;6237923;28;20040;-66
2023/10/01 16:09:48;;;;;;;20.73;17.17;;;;;;;;;;6259407;28;20501;-65
2023/10/01 16:12:51;;;;;;;22.17;12.57;;;;;;;;;;6262740;28;20191;-66
2023/10/01 16:16:26;;;;;;;21.05;14.75;;;;;;;;;;6250519;28;20690;-67
2023/10/01 16:19:29;;;;;;;19.92;13.35;;;;;;;;;;6252371;28;20781;-66
2023/10/01 16:22:32;;;;;;;21.30;14.50;;;;;;;;;;6255284;28;20132;-66
2023/10/01 16:25:34;;;;;;;21.50;12.90;;;;;;;;;;6258104;28;20041;-66
2023/10/01 16:28:40;;;;;;;22.50;14.45;;;;;;;;;;6245321;28;20076;-66
2023/10/01 16:31:42;;;;;;;16.90;13.20;;;;;;;;;;6241956;28;20053;-66
2023/10/01 16:34:44;;;;;;;20.00;16.55;;;;;;;;;;6262809;28;20490;-66
2023/10/01 16:37:48;;;;;;;22.33;15.57;;;;;;;;;;6255469;28;20046;-65
2023/10/01 16:40:50;;;;;;;19.10;13.23;;;;;;;;;;6254706;28;20055;-66
2023/10/01 16:43:53;;;;;;;25.98;15.98;;;;;;;;;;6260533;28;20051;-66
2023/10/01 16:46:57;;;;;;;20.20;13.90;;;;;;;;;;6246999;28;20046;-66
2023/10/01 16:50:04;;;;;;;21.08;14.18;;;;;;;;;;6255510;28;20053;-66
2023/10/01 16:53:06;;;;;;;22.88;15.23;;;;;;;;;;6248358;28;20813;-67
2023/10/01 16:56:16;;;;;;;24.55;17.10;;;;;;;;;;6257624;28;20052;-66
2023/10/01 16:59:31;;;;;;;22.10;14.57;;;;;;;;;;6252470;28;20533;-67
2023/10/01 17:02:37;;;;;;;24.75;14.65;;;;;;;;;;6241434;28;20049;-67
2023/10/01 17:05:40;;;;;;;22.58;14.85;;;;;;;;;;6248186;28;20045;-66
2023/10/01 17:08:42;;;;;;;21.65;19.17;;;;;;;;;;6253243;28;20429;-66
2023/10/01 17:11:45;;;;;;;20.80;16.05;;;;;;;;;;6258768;28;20044;-67
2023/10/01 17:14:52;;;;;;;28.52;17.83;;;;;;;;;;6260973;28;20212;-65
2023/10/01 17:17:55;;;;;;;28.15;19.45;;;;;;;;;;6256425;28;20450;-67
2023/10/01 17:20:57;;;;;;;21.65;15.25;;;;;;;;;;6251619;28;20061;-66
2023/10/01 17:23:59;;;;;;;21.45;13.60;;;;;;;;;;6255837;28;20812;-65
2023/10/01 17:27:05;;;;;;;23.90;15.38;;;;;;;;;;6260402;28;20450;-65
2023/10/01 17:30:18;;;;;;;22.75;15.40;;;;;;;;;;6259303;28;20580;-66
2023/10/01 17:33:32;;;;;;;27.52;18.38;;;;;;;;;;6251582;28;20522;-67
2023/10/01 17:36:36;;;;;;;24.83;15.00;;;;;;;;;;6256247;28;20059;-68
2023/10/01 17:39:38;;;;;;;27.80;20.20;;;;;;;;;;6249615;28;20518;-67
2023/10/01 17:42:41;;;;;;;25.25;15.77;;;;;;;;;;6248278;28;20053;-66
2023/10/01 17:45:46;;;;;;;27.30;15.38;;;;;;;;;;6250719;28;20509;-66
2023/10/01 17:48:54;;;;;;;24.33;15.55;;;;;;;;;;6257623;28;20185;-65
2023/10/01 17:51:59;;;;;;;24.67;17.60;;;;;;;;;;6256398;28;20053;-66
2023/10/01 17:55:01;;;;;;;30.20;18.92;;;;;;;;;;6248951;28;20450;-66
2023/10/01 17:58:07;;;;;;;30.85;20.92;;;;;;;;;;6248581;28;20045;-66
2023/10/01 18:01:13;;;;;;;27.70;18.50;;;;;;;;;;6252878;28;20060;-66
2023/10/01 18:04:20;;;;;;;28.05;17.15;;;;;;;;;;6242527;28;20045;-67
2023/10/01 18:07:29;;;;;;;33.50;20.02;;;;;;;;;;6259682;28;20071;-67
2023/10/01 18:10:44;;;;;;;27.50;17.65;;;;;;;;;;6257688;28;20045;-67
2023/10/01 18:13:48;;;;;;;28.67;17.92;;;;;;;;;;6257167;28;20051;-67
2023/10/01 18:16:51;;;;;;;28.02;19.52;;;;;;;;;;6256011;28;20799;-66
2023/10/01 18:19:54;;;;;;;31.08;17.95;;;;;;;;;;6256319;28;20049;-67
2023/10/01 18:22:57;;;;;;;31.20;17.40;;;;;;;;;;6258045;28;20049;-65
2023/10/01 18:26:02;;;;;;;29.52;21.92;;;;;;;;;;6242584;28;20445;-65
2023/10/01 18:29:14;;;;;;;26.33;17.00;;;;;;;;;;6245302;28;20129;-65
2023/10/01 18:32:16;;;;;;;26.52;18.95;;;;;;;;;;6251326;28;20146;-65
2023/10/01 18:35:24;;;;;;;29.50;18.90;;;;;;;;;;6245747;28;20064;-66
2023/10/01 18:38:28;;;;;;;31.02;20.05;;;;;;;;;;6252073;28;20484;-66
2023/10/01 18:41:34;;;;;;;27.95;18.17;;;;;;;;;;6258523;28;20430;-66
2023/10/01 18:44:36;;;;;;;30.80;19.30;;;;;;;;;;6257933;28;20051;-68
2023/10/01 18:47:38;;;;;;;28.65;19.33;;;;;;;;;;6258550;28;20132;-66
2023/10/01 18:50:44;;;;;;;29.23;17.95;;;;;;;;;;6249107;28;20053;-66
2023/10/01 18:53:46;;;;;;;27.65;20.48;;;;;;;;;;6257817;28;20831;-67
2023/10/01 18:56:50;;;;;;;29.02;18.92;;;;;;;;;;6248668;28;20056;-66
2023/10/01 18:59:52;;;;;;;29.42;18.38;;;;;;;;;;6256273;28;20122;-65
2023/10/01 19:02:55;;;;;;;31.60;19.30;;;;;;;;;;6257416;28;20048;-68
2023/10/01 19:06:00;;;;;;;32.03;20.98;;;;;;;;;;6257667;28;20529;-68
2023/10/01 19:09:04;;;;;;;29.95;18.75;;;;;;;;;;6256811;28;20526;-66
2023/10/01 19:12:06;;;;;;;29.42;19.25;;;;;;;;;;6259854;28;20077;-65
2023/10/01 19:15:19;;;;;;;27.52;18.35;;;;;;;;;;6253812;28;20045;-65
2023/10/01 19:18:21;;;;;;;33.78;20.40;;;;;;;;;;6259275;28;20143;-66
2023/10/01 19:21:23;;;;;;;28.35;18.42;;;;;;;;;;6262763;28;20130;-65
2023/10/01 19:24:26;;;;;;;31.95;20.58;;;;;;;;;;6256891;28;20433;-65
2023/10/01 19:27:32;;;;;;;27.98;19.30;;;;;;;;;;6257348;28;20041;-65